Time;durP1;ratioP1;P1;durP2;ratioP2;P2;SDS_P1;SDS_P2;PMS_P1;PMS_P2;Temp;Humidity;BMP_temperature;BMP_pressure;BME280_temperature;BME280_humidity;BME280_pressure;Samples;Min_cycle;Max_cycle;Signal;HPM_P1;HPM_P2
2022/05/16 00:00:05;;;;;;;8.18;4.47;;;;;;;;;;4937973;29;20083;-90
2022/05/16 00:02:31;;;;;;;13.73;4.88;;;;;;;;;;4921436;29;20036;-91
2022/05/16 00:04:57;;;;;;;11.88;4.80;;;;;;;;;;4937638;29;20054;-91
2022/05/16 00:07:24;;;;;;;11.15;4.95;;;;;;;;;;4937294;29;20044;-92
2022/05/16 00:09:50;;;;;;;12.32;5.00;;;;;;;;;;4937363;29;20047;-90
2022/05/16 00:12:17;;;;;;;11.45;5.22;;;;;;;;;;4937095;29;20055;-91
2022/05/16 00:14:44;;;;;;;11.00;4.80;;;;;;;;;;4937503;29;20040;-89
2022/05/16 00:17:10;;;;;;;9.82;4.68;;;;;;;;;;4938217;29;20047;-89
2022/05/16 00:19:36;;;;;;;10.23;4.25;;;;;;;;;;4939675;29;20066;-89
2022/05/16 00:22:03;;;;;;;11.52;3.90;;;;;;;;;;4924136;29;20054;-89
2022/05/16 00:24:29;;;;;;;10.13;4.55;;;;;;;;;;4924316;29;20042;-89
2022/05/16 00:26:56;;;;;;;11.75;4.90;;;;;;;;;;4924130;29;20507;-88
2022/05/16 00:29:22;;;;;;;9.73;4.38;;;;;;;;;;4939959;29;20039;-88
2022/05/16 00:31:48;;;;;;;12.60;4.43;;;;;;;;;;4939784;29;20502;-89
2022/05/16 00:34:15;;;;;;;10.77;4.30;;;;;;;;;;4939832;29;20072;-89
2022/05/16 00:36:47;;;;;;;9.25;4.00;;;;;;;;;;4939445;29;20066;-89
2022/05/16 00:39:14;;;;;;;8.07;4.22;;;;;;;;;;4940364;29;20078;-89
2022/05/16 00:41:40;;;;;;;10.35;4.50;;;;;;;;;;4939176;29;20495;-88
2022/05/16 00:44:06;;;;;;;11.05;4.32;;;;;;;;;;4939503;29;20047;-89
2022/05/16 00:46:33;;;;;;;11.70;4.22;;;;;;;;;;4939660;29;20039;-89
2022/05/16 00:48:59;;;;;;;10.82;4.10;;;;;;;;;;4939467;29;20506;-89
2022/05/16 00:51:34;;;;;;;9.93;4.18;;;;;;;;;;4939650;29;20097;-90
2022/05/16 00:54:26;;;;;;;8.65;4.05;;;;;;;;;;4939585;29;20079;-88
2022/05/16 00:56:54;;;;;;;9.15;3.97;;;;;;;;;;4953134;28;20519;-88
2022/05/16 00:59:24;;;;;;;9.43;4.40;;;;;;;;;;4939621;29;20215;-90
2022/05/16 01:04:49;;;;;;;10.00;4.10;;;;;;;;;;4939882;29;20083;-91
2022/05/16 01:07:22;;;;;;;11.70;4.25;;;;;;;;;;4939316;29;20043;-91
2022/05/16 01:09:48;;;;;;;8.35;4.50;;;;;;;;;;4939561;29;20154;-91
2022/05/16 01:12:14;;;;;;;9.90;3.97;;;;;;;;;;4923277;29;20047;-89
2022/05/16 01:14:54;;;;;;;9.68;4.22;;;;;;;;;;4923609;29;20120;-90
2022/05/16 01:17:20;;;;;;;10.77;4.60;;;;;;;;;;4939152;29;20043;-92
2022/05/16 01:19:46;;;;;;;11.48;4.18;;;;;;;;;;4939015;29;20051;-91
2022/05/16 01:22:19;;;;;;;10.80;3.92;;;;;;;;;;4939258;29;20134;-90
2022/05/16 01:24:45;;;;;;;11.02;4.15;;;;;;;;;;4939219;29;20345;-89
2022/05/16 01:27:11;;;;;;;11.80;3.85;;;;;;;;;;4938923;29;20403;-90
2022/05/16 01:29:37;;;;;;;7.80;3.97;;;;;;;;;;4939080;29;20046;-90
2022/05/16 01:32:04;;;;;;;9.45;3.85;;;;;;;;;;4938942;29;20043;-89
2022/05/16 01:34:30;;;;;;;9.82;3.53;;;;;;;;;;4939010;29;20046;-91
2022/05/16 01:36:56;;;;;;;9.57;3.30;;;;;;;;;;4938684;29;20067;-90
2022/05/16 01:39:22;;;;;;;8.05;3.22;;;;;;;;;;4922981;29;20042;-89
2022/05/16 01:41:48;;;;;;;8.77;3.30;;;;;;;;;;4938831;29;20055;-90
2022/05/16 01:44:14;;;;;;;10.07;3.35;;;;;;;;;;4938703;29;20046;-91
2022/05/16 01:46:40;;;;;;;7.45;3.03;;;;;;;;;;4922931;29;20126;-89
2022/05/16 01:49:07;;;;;;;9.68;3.30;;;;;;;;;;4938682;29;20105;-89
2022/05/16 01:51:33;;;;;;;12.65;3.50;;;;;;;;;;4922901;29;20071;-92
2022/05/16 01:54:02;;;;;;;6.60;2.85;;;;;;;;;;4938575;29;20503;-90
2022/05/16 01:56:28;;;;;;;7.55;2.70;;;;;;;;;;4938657;29;20043;-91
2022/05/16 01:58:54;;;;;;;7.63;3.35;;;;;;;;;;4938717;29;20085;-90
2022/05/16 02:01:21;;;;;;;7.07;3.10;;;;;;;;;;4923115;29;20050;-91
2022/05/16 02:03:47;;;;;;;9.13;2.88;;;;;;;;;;4938811;29;20622;-92
2022/05/16 02:06:13;;;;;;;6.20;2.40;;;;;;;;;;4923856;28;20178;-92
2022/05/16 02:08:39;;;;;;;7.65;2.60;;;;;;;;;;4938458;29;20137;-92
2022/05/16 02:11:06;;;;;;;8.48;2.50;;;;;;;;;;4938580;29;20107;-89
2022/05/16 02:13:33;;;;;;;6.72;2.50;;;;;;;;;;4938473;29;20078;-90
2022/05/16 02:15:59;;;;;;;6.45;2.00;;;;;;;;;;4938672;29;20047;-89
2022/05/16 02:18:26;;;;;;;8.52;2.58;;;;;;;;;;4922543;29;20542;-91
2022/05/16 02:20:52;;;;;;;7.85;2.15;;;;;;;;;;4938201;29;20055;-90
2022/05/16 02:26:03;;;;;;;7.35;2.65;;;;;;;;;;4938883;29;20043;-90
2022/05/16 02:28:29;;;;;;;8.30;2.58;;;;;;;;;;4938132;29;20126;-91
2022/05/16 02:30:55;;;;;;;6.13;2.03;;;;;;;;;;4922540;29;20074;-90
2022/05/16 02:33:22;;;;;;;7.78;2.47;;;;;;;;;;4938426;29;20073;-92
2022/05/16 02:35:48;;;;;;;5.18;1.77;;;;;;;;;;4938529;29;20172;-90
2022/05/16 02:38:15;;;;;;;9.30;2.60;;;;;;;;;;4922157;29;20049;-89
2022/05/16 02:40:41;;;;;;;7.75;2.47;;;;;;;;;;4938394;29;20043;-90
2022/05/16 02:43:08;;;;;;;6.15;2.40;;;;;;;;;;4938195;29;20043;-89
2022/05/16 02:45:34;;;;;;;5.97;2.63;;;;;;;;;;4938197;29;20122;-90
2022/05/16 02:48:01;;;;;;;5.53;1.98;;;;;;;;;;4938078;29;20044;-90
2022/05/16 02:50:27;;;;;;;5.82;1.92;;;;;;;;;;4938107;29;20047;-89
2022/05/16 02:52:54;;;;;;;6.90;2.25;;;;;;;;;;4938072;29;20050;-92
2022/05/16 02:55:20;;;;;;;5.00;2.00;;;;;;;;;;4938502;29;20047;-91
2022/05/16 02:57:46;;;;;;;7.75;2.05;;;;;;;;;;4938350;29;20502;-91
2022/05/16 03:00:14;;;;;;;5.75;2.00;;;;;;;;;;4938242;29;20043;-90
2022/05/16 03:02:41;;;;;;;6.88;2.00;;;;;;;;;;4938263;29;20054;-90
2022/05/16 03:05:08;;;;;;;5.78;2.00;;;;;;;;;;4938119;29;20051;-92
2022/05/16 03:07:35;;;;;;;6.63;2.10;;;;;;;;;;4937932;29;20118;-91
2022/05/16 03:10:01;;;;;;;5.53;1.92;;;;;;;;;;4937968;29;20075;-89
2022/05/16 03:12:27;;;;;;;8.43;2.35;;;;;;;;;;4937956;29;20043;-91
2022/05/16 03:14:53;;;;;;;7.80;2.22;;;;;;;;;;4937789;29;20039;-89
2022/05/16 03:17:19;;;;;;;5.25;2.17;;;;;;;;;;4937978;29;20039;-91
2022/05/16 03:19:45;;;;;;;7.30;2.30;;;;;;;;;;4939660;29;20145;-90
2022/05/16 03:22:11;;;;;;;7.10;2.45;;;;;;;;;;4941421;29;20051;-91
2022/05/16 03:24:37;;;;;;;4.30;1.90;;;;;;;;;;4941451;29;20046;-91
2022/05/16 03:27:05;;;;;;;6.90;1.80;;;;;;;;;;4925669;29;20047;-89
2022/05/16 03:29:31;;;;;;;10.02;2.45;;;;;;;;;;4941116;29;20088;-91
2022/05/16 03:31:57;;;;;;;7.28;2.15;;;;;;;;;;4941433;29;20085;-91
2022/05/16 03:34:23;;;;;;;6.28;2.20;;;;;;;;;;4941641;29;20043;-92
2022/05/16 03:36:49;;;;;;;4.60;2.10;;;;;;;;;;4941523;29;20174;-91
2022/05/16 03:41:59;;;;;;;5.05;2.10;;;;;;;;;;4941243;29;20047;-93
2022/05/16 03:44:25;;;;;;;7.78;1.90;;;;;;;;;;4941547;29;20043;-90
2022/05/16 03:46:51;;;;;;;5.97;2.00;;;;;;;;;;4941176;29;20043;-91
2022/05/16 03:49:18;;;;;;;5.97;1.90;;;;;;;;;;4940637;29;20509;-90
2022/05/16 03:51:44;;;;;;;6.68;2.67;;;;;;;;;;4940843;29;20043;-90
2022/05/16 03:54:10;;;;;;;12.43;2.10;;;;;;;;;;4941086;29;20047;-92
2022/05/16 03:56:36;;;;;;;4.72;2.17;;;;;;;;;;4925197;29;20066;-88
2022/05/16 03:59:02;;;;;;;7.75;2.40;;;;;;;;;;4940739;29;20043;-89
2022/05/16 04:01:28;;;;;;;5.63;2.25;;;;;;;;;;4924860;29;20043;-89
2022/05/16 04:03:55;;;;;;;6.00;2.13;;;;;;;;;;4940524;29;20047;-90
2022/05/16 04:06:21;;;;;;;7.35;2.20;;;;;;;;;;4940683;29;20058;-91
2022/05/16 04:08:47;;;;;;;7.18;2.33;;;;;;;;;;4924894;29;20046;-90
2022/05/16 04:11:16;;;;;;;6.70;2.38;;;;;;;;;;4924547;29;20043;-90
2022/05/16 04:13:42;;;;;;;6.38;2.00;;;;;;;;;;4924363;29;20126;-90
2022/05/16 04:16:08;;;;;;;7.13;2.08;;;;;;;;;;4940709;29;20474;-92
2022/05/16 04:18:36;;;;;;;8.43;2.08;;;;;;;;;;4924699;29;20091;-89
2022/05/16 04:21:02;;;;;;;7.28;1.95;;;;;;;;;;4923435;29;20066;-93
2022/05/16 04:23:28;;;;;;;6.32;1.63;;;;;;;;;;4939314;29;20098;-93
2022/05/16 04:25:54;;;;;;;5.40;2.28;;;;;;;;;;4939384;29;20082;-91
2022/05/16 04:28:20;;;;;;;5.70;2.00;;;;;;;;;;4939291;29;20156;-89
2022/05/16 04:30:46;;;;;;;8.43;2.67;;;;;;;;;;4937823;29;20050;-88
2022/05/16 04:33:12;;;;;;;5.57;2.20;;;;;;;;;;4939300;29;20071;-89
2022/05/16 04:35:38;;;;;;;6.75;2.13;;;;;;;;;;4938981;29;20125;-90
2022/05/16 04:38:05;;;;;;;6.88;1.90;;;;;;;;;;4939160;29;20043;-89
2022/05/16 04:40:31;;;;;;;7.90;2.30;;;;;;;;;;4955928;29;20082;-88
2022/05/16 04:42:57;;;;;;;6.95;2.20;;;;;;;;;;4938854;29;20050;-92
2022/05/16 04:45:24;;;;;;;7.43;2.25;;;;;;;;;;4938760;29;20054;-91
2022/05/16 04:47:55;;;;;;;6.45;2.33;;;;;;;;;;4938871;29;20081;-90
2022/05/16 04:50:32;;;;;;;7.20;2.28;;;;;;;;;;4938713;29;20039;-89
2022/05/16 04:52:59;;;;;;;7.70;2.55;;;;;;;;;;4939191;29;20187;-89
2022/05/16 04:55:25;;;;;;;6.28;2.22;;;;;;;;;;4939101;29;20130;-89
2022/05/16 04:57:53;;;;;;;7.32;2.13;;;;;;;;;;4939176;29;20051;-90
2022/05/16 05:00:20;;;;;;;6.18;1.88;;;;;;;;;;4938778;29;20126;-91
2022/05/16 05:02:47;;;;;;;5.15;2.13;;;;;;;;;;4938994;29;20130;-90
2022/05/16 05:05:13;;;;;;;9.70;3.05;;;;;;;;;;4938672;29;20054;-92
2022/05/16 05:07:39;;;;;;;6.15;2.20;;;;;;;;;;4938953;29;20107;-91
2022/05/16 05:15:36;;;;;;;8.32;2.20;;;;;;;;;;4938606;29;20591;-91
2022/05/16 05:18:02;;;;;;;6.70;2.38;;;;;;;;;;4955487;29;20534;-91
2022/05/16 05:20:28;;;;;;;8.45;2.58;;;;;;;;;;4887166;29;1041618;-92
2022/05/16 05:22:54;;;;;;;7.68;2.40;;;;;;;;;;4923353;29;20411;-89
2022/05/16 05:25:21;;;;;;;9.30;2.70;;;;;;;;;;4939039;29;20074;-88
2022/05/16 05:27:48;;;;;;;7.57;2.30;;;;;;;;;;4939028;29;20080;-89
2022/05/16 05:30:16;;;;;;;12.48;2.50;;;;;;;;;;4923394;29;20075;-91
2022/05/16 05:32:42;;;;;;;6.95;2.47;;;;;;;;;;4938856;29;20130;-91
2022/05/16 05:35:09;;;;;;;8.60;2.65;;;;;;;;;;4938761;29;20099;-89
2022/05/16 05:37:35;;;;;;;8.60;3.13;;;;;;;;;;4939401;29;20079;-93
2022/05/16 05:40:01;;;;;;;6.72;2.35;;;;;;;;;;4938803;29;20399;-90
2022/05/16 05:42:28;;;;;;;7.78;2.65;;;;;;;;;;4923179;29;20121;-89
2022/05/16 05:44:55;;;;;;;6.85;2.67;;;;;;;;;;4938964;29;20158;-93
2022/05/16 05:47:21;;;;;;;6.75;2.47;;;;;;;;;;4939105;29;20479;-90
2022/05/16 05:49:47;;;;;;;7.38;2.88;;;;;;;;;;4938736;29;20133;-91
2022/05/16 05:52:16;;;;;;;7.80;2.80;;;;;;;;;;4939065;29;20448;-92
2022/05/16 05:54:43;;;;;;;7.53;2.75;;;;;;;;;;4938973;29;20039;-90
2022/05/16 05:57:09;;;;;;;8.02;2.42;;;;;;;;;;4938859;29;20039;-92
2022/05/16 05:59:35;;;;;;;7.53;2.33;;;;;;;;;;4938826;29;20082;-90
2022/05/16 06:02:01;;;;;;;9.30;2.60;;;;;;;;;;4939052;29;20050;-92
2022/05/16 06:04:27;;;;;;;8.35;2.75;;;;;;;;;;4938821;29;20043;-90
2022/05/16 06:06:53;;;;;;;7.13;2.85;;;;;;;;;;4923220;29;20137;-90
2022/05/16 06:09:19;;;;;;;9.73;2.78;;;;;;;;;;4938732;29;20043;-94
2022/05/16 06:11:48;;;;;;;6.38;2.50;;;;;;;;;;4938569;29;20506;-91
2022/05/16 06:14:14;;;;;;;9.00;3.03;;;;;;;;;;4938330;29;20075;-89
2022/05/16 06:16:41;;;;;;;8.82;2.92;;;;;;;;;;4938525;29;20395;-93
2022/05/16 06:19:08;;;;;;;7.93;2.58;;;;;;;;;;4938672;29;20054;-90
2022/05/16 06:21:34;;;;;;;8.15;2.63;;;;;;;;;;4922557;29;20055;-94
2022/05/16 06:24:00;;;;;;;9.43;2.80;;;;;;;;;;4939280;29;20098;-92
2022/05/16 06:26:27;;;;;;;10.65;2.90;;;;;;;;;;4938594;29;20450;-94
2022/05/16 06:28:53;;;;;;;8.10;2.88;;;;;;;;;;4938866;29;20534;-91
2022/05/16 06:31:19;;;;;;;8.77;2.53;;;;;;;;;;4938266;29;20078;-94
2022/05/16 06:33:47;;;;;;;10.50;2.85;;;;;;;;;;4938581;29;20044;-91
2022/05/16 06:36:13;;;;;;;8.98;2.72;;;;;;;;;;4938438;29;20031;-91
2022/05/16 06:38:39;;;;;;;8.95;2.95;;;;;;;;;;4938755;29;20044;-92
2022/05/16 06:41:05;;;;;;;6.10;2.75;;;;;;;;;;4938355;29;20051;-92
2022/05/16 06:43:32;;;;;;;7.90;3.22;;;;;;;;;;4938631;29;20055;-91
2022/05/16 06:45:58;;;;;;;12.45;3.05;;;;;;;;;;4938481;29;20495;-91
2022/05/16 06:48:25;;;;;;;8.45;3.00;;;;;;;;;;4938194;29;20122;-90
2022/05/16 06:50:52;;;;;;;8.23;3.10;;;;;;;;;;4938056;29;20130;-91
2022/05/16 06:53:20;;;;;;;5.95;2.65;;;;;;;;;;4938545;29;20110;-91
2022/05/16 06:55:46;;;;;;;7.95;3.00;;;;;;;;;;4943025;29;20517;-91
2022/05/16 06:58:12;;;;;;;9.80;2.75;;;;;;;;;;4966221;28;20034;-89
2022/05/16 07:00:38;;;;;;;9.48;2.50;;;;;;;;;;4972459;28;20546;-91
2022/05/16 07:03:04;;;;;;;10.65;3.38;;;;;;;;;;4955285;29;20043;-89
2022/05/16 07:05:31;;;;;;;11.48;3.00;;;;;;;;;;4946803;28;20042;-91
2022/05/16 07:07:57;;;;;;;8.38;2.83;;;;;;;;;;4951906;28;20090;-90
2022/05/16 07:10:24;;;;;;;10.02;2.90;;;;;;;;;;4954808;28;20047;-92
2022/05/16 07:12:50;;;;;;;7.35;3.00;;;;;;;;;;4960067;28;20043;-94
2022/05/16 07:15:16;;;;;;;6.32;2.72;;;;;;;;;;4973174;28;20042;-90
2022/05/16 07:17:43;;;;;;;7.88;3.00;;;;;;;;;;4964695;28;20038;-91
2022/05/16 07:20:10;;;;;;;12.43;3.58;;;;;;;;;;4970489;28;20055;-91
2022/05/16 07:22:36;;;;;;;8.18;3.15;;;;;;;;;;4970873;28;20489;-91
2022/05/16 07:25:02;;;;;;;9.40;3.00;;;;;;;;;;4948035;28;20045;-90
2022/05/16 07:30:12;;;;;;;9.57;2.75;;;;;;;;;;4969492;28;20422;-90
2022/05/16 07:32:42;;;;;;;8.65;3.20;;;;;;;;;;4957745;28;20075;-91
2022/05/16 07:35:10;;;;;;;8.93;3.15;;;;;;;;;;4969263;28;20435;-90
2022/05/16 07:37:36;;;;;;;7.35;3.17;;;;;;;;;;4946035;28;20081;-90
2022/05/16 07:40:02;;;;;;;11.50;3.28;;;;;;;;;;4970349;28;20067;-92
2022/05/16 07:42:28;;;;;;;9.52;3.00;;;;;;;;;;4969025;28;20434;-93
2022/05/16 07:44:54;;;;;;;12.18;3.40;;;;;;;;;;4975877;28;20038;-92
2022/05/16 07:47:20;;;;;;;8.90;2.90;;;;;;;;;;4944003;28;20042;-90
2022/05/16 07:49:46;;;;;;;9.85;3.03;;;;;;;;;;4944897;28;20086;-90
2022/05/16 07:52:11;;;;;;;11.57;2.83;;;;;;;;;;4960266;28;20050;-90
2022/05/16 07:54:37;;;;;;;8.45;3.10;;;;;;;;;;4961382;28;20042;-91
2022/05/16 07:57:04;;;;;;;9.85;3.40;;;;;;;;;;4958465;28;20494;-90
2022/05/16 07:59:30;;;;;;;10.68;3.38;;;;;;;;;;4943958;28;20490;-90
2022/05/16 08:01:56;;;;;;;9.88;2.67;;;;;;;;;;4943904;28;20505;-92
2022/05/16 08:04:22;;;;;;;11.15;2.92;;;;;;;;;;4959813;28;20094;-91
2022/05/16 08:06:48;;;;;;;9.93;2.40;;;;;;;;;;4943769;28;20409;-90
2022/05/16 08:11:59;;;;;;;13.37;3.27;;;;;;;;;;4959575;28;20043;-91
2022/05/16 08:14:25;;;;;;;9.73;2.80;;;;;;;;;;4959698;28;20035;-92
2022/05/16 08:16:51;;;;;;;7.85;2.50;;;;;;;;;;4944058;28;20046;-90
2022/05/16 08:19:17;;;;;;;11.70;2.88;;;;;;;;;;4959635;28;20505;-90
2022/05/16 08:21:44;;;;;;;10.05;2.80;;;;;;;;;;4959728;28;20050;-92
2022/05/16 08:24:11;;;;;;;10.05;2.67;;;;;;;;;;4943726;28;20078;-91
2022/05/16 08:26:37;;;;;;;7.47;3.42;;;;;;;;;;4959609;28;20046;-92
2022/05/16 08:29:04;;;;;;;9.05;2.92;;;;;;;;;;4959845;28;20133;-94
2022/05/16 08:31:30;;;;;;;8.48;2.70;;;;;;;;;;4959404;28;20050;-90
2022/05/16 08:33:57;;;;;;;9.70;2.90;;;;;;;;;;4962045;28;20043;-93
2022/05/16 08:41:56;;;;;;;11.93;3.00;;;;;;;;;;4961546;28;20122;-92
2022/05/16 08:44:27;;;;;;;8.90;3.05;;;;;;;;;;4960550;28;20133;-90
2022/05/16 08:47:00;;;;;;;8.10;2.40;;;;;;;;;;4959305;28;20126;-91
2022/05/16 08:49:35;;;;;;;8.38;2.35;;;;;;;;;;4943439;28;20133;-90
2022/05/16 08:52:21;;;;;;;9.98;2.88;;;;;;;;;;4959080;28;20042;-91
2022/05/16 08:54:51;;;;;;;10.68;2.78;;;;;;;;;;4951858;28;20050;-90
2022/05/16 08:57:28;;;;;;;10.40;2.67;;;;;;;;;;4942673;28;20043;-89
2022/05/16 09:00:01;;;;;;;12.43;2.65;;;;;;;;;;4958423;28;20487;-87
2022/05/16 09:02:30;;;;;;;11.55;3.08;;;;;;;;;;4958430;28;20051;-90
2022/05/16 09:04:59;;;;;;;7.88;2.63;;;;;;;;;;4958592;28;20089;-91
2022/05/16 09:07:46;;;;;;;8.73;2.83;;;;;;;;;;4958353;28;20050;-91
2022/05/16 09:10:12;;;;;;;7.80;2.60;;;;;;;;;;4950407;28;20669;-92
2022/05/16 09:12:59;;;;;;;9.23;2.75;;;;;;;;;;4949056;28;20050;-88
2022/05/16 09:15:30;;;;;;;10.25;3.13;;;;;;;;;;4904573;28;20536;-88
2022/05/16 09:18:02;;;;;;;8.07;2.50;;;;;;;;;;4941076;28;20089;-88
2022/05/16 09:20:27;;;;;;;11.05;2.65;;;;;;;;;;4958397;28;20495;-89
2022/05/16 09:22:59;;;;;;;7.60;2.72;;;;;;;;;;4955914;28;20174;-93
2022/05/16 09:25:37;;;;;;;7.55;2.60;;;;;;;;;;4938825;29;20043;-90
2022/05/16 09:31:02;;;;;;;7.57;2.30;;;;;;;;;;4938473;29;20051;-90
2022/05/16 09:33:31;;;;;;;10.43;2.50;;;;;;;;;;4938338;29;20043;-91
2022/05/16 09:36:01;;;;;;;8.27;2.50;;;;;;;;;;4938645;29;20435;-89
2022/05/16 09:38:27;;;;;;;11.65;2.90;;;;;;;;;;4938067;29;20042;-91
2022/05/16 09:40:59;;;;;;;8.15;2.88;;;;;;;;;;4922411;29;20043;-89
2022/05/16 09:43:26;;;;;;;11.75;3.05;;;;;;;;;;4955092;28;20050;-89
2022/05/16 09:45:55;;;;;;;10.48;2.83;;;;;;;;;;4922338;29;20049;-90
2022/05/16 09:48:22;;;;;;;7.47;3.03;;;;;;;;;;4922246;29;20079;-88
2022/05/16 09:51:08;;;;;;;8.07;2.88;;;;;;;;;;4938303;29;20487;-89
2022/05/16 09:53:36;;;;;;;11.43;2.72;;;;;;;;;;4938232;29;20058;-90
2022/05/16 09:56:21;;;;;;;11.57;3.08;;;;;;;;;;4938087;29;20078;-89
2022/05/16 09:59:00;;;;;;;9.88;2.60;;;;;;;;;;4937700;29;20043;-90
2022/05/16 10:01:37;;;;;;;9.48;2.45;;;;;;;;;;4938425;29;20514;-89
2022/05/16 10:04:14;;;;;;;12.18;2.78;;;;;;;;;;4922666;29;20050;-89
2022/05/16 10:06:43;;;;;;;13.18;2.80;;;;;;;;;;4938227;29;20121;-88
2022/05/16 10:09:16;;;;;;;8.68;2.63;;;;;;;;;;4937688;29;20043;-88
2022/05/16 10:11:47;;;;;;;10.90;2.63;;;;;;;;;;4955078;29;20047;-90
2022/05/16 10:14:14;;;;;;;9.10;3.10;;;;;;;;;;4955048;29;20036;-90
2022/05/16 10:16:43;;;;;;;10.52;3.13;;;;;;;;;;4937997;29;20363;-88
2022/05/16 10:19:15;;;;;;;7.95;2.63;;;;;;;;;;4938001;29;20510;-90
2022/05/16 10:21:52;;;;;;;8.95;3.22;;;;;;;;;;4919454;29;20113;-89
2022/05/16 10:24:19;;;;;;;11.18;2.78;;;;;;;;;;4934686;29;20131;-84
2022/05/16 10:26:47;;;;;;;7.18;2.53;;;;;;;;;;4935868;29;20078;-85
2022/05/16 10:29:33;;;;;;;8.38;2.60;;;;;;;;;;4934655;29;20471;-88
2022/05/16 10:34:58;;;;;;;9.60;2.58;;;;;;;;;;4934555;29;20407;-87
2022/05/16 10:37:25;;;;;;;10.50;2.55;;;;;;;;;;4934312;29;20047;-88
2022/05/16 10:40:05;;;;;;;7.68;2.72;;;;;;;;;;4918709;29;20054;-88
2022/05/16 10:42:38;;;;;;;12.82;2.67;;;;;;;;;;4934455;29;20114;-87
2022/05/16 10:45:12;;;;;;;11.23;2.72;;;;;;;;;;4918901;29;20039;-87
2022/05/16 10:48:00;;;;;;;8.27;2.45;;;;;;;;;;4933978;29;20047;-88
2022/05/16 10:50:34;;;;;;;8.88;2.60;;;;;;;;;;4934164;29;20126;-87
2022/05/16 10:53:06;;;;;;;8.38;2.40;;;;;;;;;;4918259;29;20372;-90
2022/05/16 10:55:58;;;;;;;9.65;2.30;;;;;;;;;;4934317;29;20131;-86
2022/05/16 10:58:33;;;;;;;8.25;2.63;;;;;;;;;;4919977;29;20048;-87
2022/05/16 11:01:08;;;;;;;10.52;2.58;;;;;;;;;;4934322;29;20392;-87
2022/05/16 11:03:42;;;;;;;8.15;2.42;;;;;;;;;;4933896;29;20399;-87
2022/05/16 11:06:26;;;;;;;10.07;2.42;;;;;;;;;;4934031;29;20040;-86
2022/05/16 11:08:58;;;;;;;8.77;2.72;;;;;;;;;;4933849;29;20522;-87
2022/05/16 11:11:31;;;;;;;8.70;2.67;;;;;;;;;;4933922;29;20040;-85
2022/05/16 11:14:15;;;;;;;7.85;2.65;;;;;;;;;;4933967;29;20270;-87
2022/05/16 11:16:41;;;;;;;10.87;2.47;;;;;;;;;;4934215;29;20043;-86
2022/05/16 11:19:13;;;;;;;10.80;3.10;;;;;;;;;;4933838;29;20279;-87
2022/05/16 11:21:58;;;;;;;10.98;2.55;;;;;;;;;;4918037;29;20056;-86
2022/05/16 11:24:23;;;;;;;6.93;2.55;;;;;;;;;;4954317;28;20495;-85
2022/05/16 11:26:53;;;;;;;10.45;2.60;;;;;;;;;;4972233;28;20046;-86
2022/05/16 11:29:19;;;;;;;10.50;2.70;;;;;;;;;;4957257;28;20406;-86
2022/05/16 11:31:45;;;;;;;8.80;2.75;;;;;;;;;;4952910;28;20047;-85
2022/05/16 11:34:13;;;;;;;10.90;3.10;;;;;;;;;;4952940;28;20046;-86
2022/05/16 11:36:46;;;;;;;8.73;2.85;;;;;;;;;;4952908;29;20561;-86
2022/05/16 11:39:17;;;;;;;8.43;2.72;;;;;;;;;;4952887;28;20051;-85
2022/05/16 11:41:55;;;;;;;7.78;2.70;;;;;;;;;;4956444;29;20126;-86
2022/05/16 11:44:24;;;;;;;8.07;2.78;;;;;;;;;;4956294;29;20047;-86
2022/05/16 11:46:57;;;;;;;12.68;2.72;;;;;;;;;;4956423;29;20159;-86
2022/05/16 11:49:23;;;;;;;8.95;2.53;;;;;;;;;;4956161;29;20062;-86
2022/05/16 11:52:04;;;;;;;10.15;2.70;;;;;;;;;;4956297;29;20039;-86
2022/05/16 11:54:33;;;;;;;7.82;3.05;;;;;;;;;;4957450;29;20054;-88
2022/05/16 12:02:33;;;;;;;9.23;2.55;;;;;;;;;;4957520;29;20283;-85
2022/05/16 12:05:07;;;;;;;8.65;3.13;;;;;;;;;;4955788;29;20178;-86
2022/05/16 12:07:40;;;;;;;9.52;2.80;;;;;;;;;;4955917;29;20494;-86
2022/05/16 12:10:15;;;;;;;9.25;2.88;;;;;;;;;;4955692;29;20055;-85
2022/05/16 12:12:45;;;;;;;11.52;2.78;;;;;;;;;;4955722;29;20050;-85
2022/05/16 12:15:11;;;;;;;9.27;3.20;;;;;;;;;;4955812;28;20597;-86
2022/05/16 12:17:38;;;;;;;9.75;3.58;;;;;;;;;;4955689;29;20082;-85
2022/05/16 12:20:11;;;;;;;10.25;3.35;;;;;;;;;;4963106;28;20059;-85
2022/05/16 12:22:37;;;;;;;10.85;3.40;;;;;;;;;;4959098;28;20042;-85
2022/05/16 12:25:08;;;;;;;8.93;3.65;;;;;;;;;;4958656;28;20054;-85
2022/05/16 12:27:44;;;;;;;10.85;3.60;;;;;;;;;;4958995;28;20082;-85
2022/05/16 12:30:12;;;;;;;11.75;3.85;;;;;;;;;;4958594;28;20054;-85
2022/05/16 12:32:38;;;;;;;8.23;3.35;;;;;;;;;;4975988;28;20051;-85
2022/05/16 12:35:09;;;;;;;13.07;4.03;;;;;;;;;;4958447;28;20054;-85
2022/05/16 12:37:36;;;;;;;12.23;3.95;;;;;;;;;;4958714;28;20051;-84
2022/05/16 12:40:05;;;;;;;11.63;3.95;;;;;;;;;;4958586;28;20455;-85
2022/05/16 12:42:50;;;;;;;13.00;4.50;;;;;;;;;;4958514;28;20050;-85
2022/05/16 12:45:16;;;;;;;11.63;4.18;;;;;;;;;;4958215;28;20391;-85
2022/05/16 12:47:54;;;;;;;10.48;3.83;;;;;;;;;;4958439;28;20058;-80
2022/05/16 12:50:20;;;;;;;11.90;4.10;;;;;;;;;;4958226;28;20122;-86
2022/05/16 12:53:04;;;;;;;13.25;4.68;;;;;;;;;;4957387;28;20126;-83
2022/05/16 12:55:48;;;;;;;10.03;3.97;;;;;;;;;;4958078;28;20039;-84
2022/05/16 12:58:14;;;;;;;10.25;4.40;;;;;;;;;;4958350;28;20039;-85
2022/05/16 13:00:46;;;;;;;11.27;3.83;;;;;;;;;;4958226;28;20042;-85
2022/05/16 13:03:24;;;;;;;13.50;4.53;;;;;;;;;;4975434;28;20556;-85
2022/05/16 13:06:01;;;;;;;15.02;5.15;;;;;;;;;;4957873;28;20133;-85
2022/05/16 13:08:27;;;;;;;14.20;4.55;;;;;;;;;;4990491;28;20129;-86
2022/05/16 13:11:12;;;;;;;9.48;4.43;;;;;;;;;;4974987;28;20125;-85
2022/05/16 13:13:56;;;;;;;12.83;4.50;;;;;;;;;;4958420;28;20482;-89
2022/05/16 13:16:26;;;;;;;12.50;3.90;;;;;;;;;;4942017;28;20038;-82
2022/05/16 13:19:00;;;;;;;10.50;3.60;;;;;;;;;;4957842;28;20042;-84
2022/05/16 13:21:38;;;;;;;11.77;4.32;;;;;;;;;;4957649;28;20062;-85
2022/05/16 13:24:08;;;;;;;12.02;4.18;;;;;;;;;;4957512;28;20552;-85
2022/05/16 13:29:21;;;;;;;11.88;3.65;;;;;;;;;;4957300;28;20125;-85
2022/05/16 13:31:48;;;;;;;10.73;3.33;;;;;;;;;;4974714;28;20589;-85
2022/05/16 13:34:26;;;;;;;11.18;3.92;;;;;;;;;;4957441;28;20133;-85
2022/05/16 13:36:53;;;;;;;9.43;3.50;;;;;;;;;;4957718;28;20055;-85
2022/05/16 13:39:19;;;;;;;12.27;4.18;;;;;;;;;;4974617;28;20053;-85
2022/05/16 13:41:54;;;;;;;9.57;3.75;;;;;;;;;;4957594;28;20089;-85
2022/05/16 13:44:20;;;;;;;13.48;4.75;;;;;;;;;;4957322;28;20142;-85
2022/05/16 13:46:46;;;;;;;14.23;4.78;;;;;;;;;;4974838;28;20160;-85
2022/05/16 13:49:13;;;;;;;11.38;4.63;;;;;;;;;;4957440;28;20038;-86
2022/05/16 13:51:51;;;;;;;12.18;4.65;;;;;;;;;;4957187;28;20054;-86
2022/05/16 13:54:19;;;;;;;10.68;4.65;;;;;;;;;;4957356;28;20106;-86
2022/05/16 13:56:56;;;;;;;9.00;4.10;;;;;;;;;;4957476;28;20105;-86
2022/05/16 13:59:26;;;;;;;10.38;4.15;;;;;;;;;;4974522;28;20042;-86
2022/05/16 14:01:59;;;;;;;11.07;4.63;;;;;;;;;;4941285;28;20047;-86
2022/05/16 14:04:29;;;;;;;11.73;4.93;;;;;;;;;;4956833;28;20529;-85
2022/05/16 14:07:00;;;;;;;12.75;5.03;;;;;;;;;;4957185;28;20116;-85
2022/05/16 14:09:28;;;;;;;9.82;3.78;;;;;;;;;;4956884;28;20066;-85
2022/05/16 14:11:55;;;;;;;11.27;4.13;;;;;;;;;;4956836;28;20043;-86
2022/05/16 14:14:24;;;;;;;10.60;4.30;;;;;;;;;;4956925;28;20097;-86
2022/05/16 14:16:52;;;;;;;9.60;4.03;;;;;;;;;;4956863;28;20038;-86
2022/05/16 14:19:30;;;;;;;8.13;4.70;;;;;;;;;;4940748;28;20043;-85
2022/05/16 14:22:02;;;;;;;9.25;4.00;;;;;;;;;;4956876;28;20057;-87
2022/05/16 14:24:36;;;;;;;10.57;4.30;;;;;;;;;;4974160;28;20057;-85
2022/05/16 14:27:02;;;;;;;6.82;4.18;;;;;;;;;;4957206;28;20073;-85
2022/05/16 14:29:28;;;;;;;10.75;4.50;;;;;;;;;;4956858;28;20542;-86
2022/05/16 14:32:00;;;;;;;8.88;4.57;;;;;;;;;;4956590;28;20054;-85
2022/05/16 14:34:29;;;;;;;8.40;4.15;;;;;;;;;;4956997;28;20492;-85
2022/05/16 14:37:03;;;;;;;11.02;4.70;;;;;;;;;;4956655;28;20043;-85
2022/05/16 14:39:30;;;;;;;9.50;4.72;;;;;;;;;;4974004;28;20048;-85
2022/05/16 14:42:05;;;;;;;12.23;4.72;;;;;;;;;;4974060;28;20074;-85
2022/05/16 14:44:33;;;;;;;9.52;5.60;;;;;;;;;;4940665;28;20043;-85
2022/05/16 14:47:02;;;;;;;12.30;5.47;;;;;;;;;;4956463;28;20046;-85
2022/05/16 14:49:28;;;;;;;8.70;5.43;;;;;;;;;;4940580;28;20486;-86
2022/05/16 14:51:54;;;;;;;11.13;5.65;;;;;;;;;;4972631;28;20039;-86
2022/05/16 14:54:23;;;;;;;10.52;5.28;;;;;;;;;;4974113;28;20089;-85
2022/05/16 14:56:49;;;;;;;13.10;5.15;;;;;;;;;;4973563;28;20486;-86
2022/05/16 14:59:15;;;;;;;11.43;6.30;;;;;;;;;;4956453;28;20535;-85
2022/05/16 15:04:27;;;;;;;11.68;7.07;;;;;;;;;;4973748;28;20050;-85
2022/05/16 15:06:53;;;;;;;16.30;7.80;;;;;;;;;;4940322;28;20046;-89
2022/05/16 15:09:20;;;;;;;12.68;7.80;;;;;;;;;;4956483;28;20070;-84
2022/05/16 15:11:54;;;;;;;14.60;7.70;;;;;;;;;;4973604;28;20053;-83
2022/05/16 15:14:21;;;;;;;14.38;8.35;;;;;;;;;;4973800;28;20505;-85
2022/05/16 15:16:48;;;;;;;14.35;9.45;;;;;;;;;;4959734;28;20054;-84
2022/05/16 15:19:16;;;;;;;15.55;10.75;;;;;;;;;;4943984;28;20398;-85
2022/05/16 15:21:45;;;;;;;19.42;11.40;;;;;;;;;;4992018;28;20061;-85
2022/05/16 15:24:12;;;;;;;17.38;11.75;;;;;;;;;;4992487;28;20046;-85
2022/05/16 15:26:38;;;;;;;17.83;12.85;;;;;;;;;;4959100;28;20516;-87
2022/05/16 15:29:04;;;;;;;18.63;12.30;;;;;;;;;;4992270;28;20166;-85